createdAt,value
2023-01-29T00:00:10.227Z,8.10
2023-01-29T00:02:41.219Z,8.40
2023-01-29T00:05:26.552Z,8.20
2023-01-29T00:07:58.612Z,8.50
2023-01-29T00:10:29.524Z,8.80
2023-01-29T00:13:00.444Z,8.80
2023-01-29T00:15:31.327Z,8.90
2023-01-29T00:18:02.245Z,8.40
2023-01-29T00:20:34.055Z,8.10
2023-01-29T00:23:04.968Z,8.40
2023-01-29T00:25:35.853Z,8.10
2023-01-29T00:28:06.847Z,8.30
2023-01-29T00:30:38.459Z,7.90
2023-01-29T00:33:09.389Z,7.90
2023-01-29T00:35:41.266Z,7.80
2023-01-29T00:38:12.169Z,7.60
2023-01-29T00:41:01.467Z,7.60
2023-01-29T00:43:50.893Z,7.90
2023-01-29T00:46:21.836Z,8.00
2023-01-29T00:48:52.763Z,7.90
2023-01-29T00:51:23.643Z,7.80
2023-01-29T00:53:58.309Z,8.00
2023-01-29T00:56:30.749Z,8.30
2023-01-29T00:59:01.982Z,8.20
2023-01-29T01:01:51.792Z,8.00
2023-01-29T01:04:22.697Z,8.10
2023-01-29T01:06:53.547Z,8.00
2023-01-29T01:09:43.150Z,8.10
2023-01-29T01:12:14.080Z,8.10
2023-01-29T01:14:45.385Z,8.00
2023-01-29T01:17:16.489Z,7.90
2023-01-29T01:19:47.642Z,8.10
2023-01-29T01:22:18.618Z,8.20
2023-01-29T01:24:50.420Z,8.20
2023-01-29T01:27:21.421Z,8.10
2023-01-29T01:29:52.417Z,8.20
2023-01-29T01:32:23.427Z,7.90
2023-01-29T01:34:54.327Z,7.10
2023-01-29T01:37:25.261Z,7.20
2023-01-29T01:39:57.925Z,7.70
2023-01-29T01:42:30.581Z,7.80
2023-01-29T01:45:07.977Z,8.10
2023-01-29T01:47:46.826Z,7.80
2023-01-29T01:50:56.809Z,8.00
2023-01-29T01:53:41.445Z,7.80
2023-01-29T01:56:23.162Z,7.50
2023-01-29T01:58:59.292Z,7.50
2023-01-29T02:01:30.172Z,7.60
2023-01-29T02:04:29.265Z,7.80
2023-01-29T02:07:22.434Z,7.70
2023-01-29T02:10:01.036Z,8.00
2023-01-29T02:12:35.078Z,7.90
2023-01-29T02:15:07.028Z,8.10
2023-01-29T02:17:38.518Z,8.00
2023-01-29T02:20:24.338Z,7.90
2023-01-29T02:22:56.092Z,7.60
2023-01-29T02:25:59.458Z,8.30
2023-01-29T02:28:50.185Z,8.00
2023-01-29T02:31:33.641Z,8.20
2023-01-29T02:35:04.932Z,8.10
2023-01-29T02:38:01.811Z,8.20
2023-01-29T02:40:44.223Z,8.00
2023-01-29T02:43:46.286Z,7.50
2023-01-29T02:46:41.471Z,7.40
2023-01-29T02:49:34.021Z,7.70
2023-01-29T02:52:36.759Z,7.40
2023-01-29T02:55:22.819Z,7.30
2023-01-29T02:58:03.636Z,7.50
2023-01-29T03:00:40.897Z,7.40
2023-01-29T03:03:28.888Z,7.60
2023-01-29T03:06:36.674Z,7.50
2023-01-29T03:09:22.593Z,7.40
2023-01-29T03:11:59.896Z,7.70
2023-01-29T03:14:56.499Z,7.50
2023-01-29T03:17:40.442Z,7.40
2023-01-29T03:20:18.321Z,7.80
2023-01-29T03:22:57.563Z,7.70
2023-01-29T03:25:47.915Z,7.30
2023-01-29T03:28:38.881Z,7.20
2023-01-29T03:31:31.946Z,7.00
2023-01-29T03:34:24.742Z,6.80
2023-01-29T03:37:13.903Z,7.10
2023-01-29T03:39:45.270Z,6.90
2023-01-29T03:42:18.796Z,6.90
2023-01-29T03:45:23.538Z,7.60
2023-01-29T03:48:09.150Z,7.80
2023-01-29T03:51:30.291Z,7.60
2023-01-29T03:54:21.456Z,7.40
2023-01-29T03:56:58.801Z,7.30
2023-01-29T03:59:54.211Z,7.30
2023-01-29T04:02:34.110Z,7.30
2023-01-29T04:05:19.104Z,7.40
2023-01-29T04:07:57.207Z,6.20
2023-01-29T04:10:29.990Z,6.60
2023-01-29T04:13:06.714Z,7.10
2023-01-29T04:15:46.661Z,7.20
2023-01-29T04:18:17.633Z,7.10
2023-01-29T04:20:49.183Z,7.00
2023-01-29T04:23:26.510Z,7.10
2023-01-29T04:26:56.205Z,6.70
2023-01-29T04:29:59.658Z,7.10
2023-01-29T04:33:10.594Z,7.30
2023-01-29T04:36:07.195Z,7.30
2023-01-29T04:39:06.524Z,7.30
2023-01-29T04:42:07.311Z,7.40
2023-01-29T04:44:49.899Z,7.10
2023-01-29T04:48:05.617Z,6.10
2023-01-29T04:51:07.958Z,6.40
2023-01-29T04:54:00.039Z,7.10
2023-01-29T04:56:50.262Z,7.30
2023-01-29T04:59:35.378Z,7.10
2023-01-29T05:02:09.873Z,7.60
2023-01-29T05:04:43.595Z,7.50
2023-01-29T05:07:15.665Z,7.50
2023-01-29T05:09:47.619Z,7.20
2023-01-29T05:12:19.242Z,7.20
2023-01-29T05:14:52.180Z,7.40
2023-01-29T05:17:23.169Z,7.20
2023-01-29T05:19:56.509Z,7.00
2023-01-29T05:22:27.753Z,7.20
2023-01-29T05:24:58.645Z,7.50
2023-01-29T05:27:54.189Z,7.60
2023-01-29T05:30:25.114Z,7.50
2023-01-29T05:32:56.006Z,7.40
2023-01-29T05:35:28.514Z,6.70
2023-01-29T05:37:59.472Z,6.70
2023-01-29T05:40:30.421Z,6.90
2023-01-29T05:43:01.577Z,7.00
2023-01-29T05:45:35.486Z,7.30
2023-01-29T05:48:06.479Z,7.10
2023-01-29T05:50:37.444Z,7.30
2023-01-29T05:53:09.544Z,7.70
2023-01-29T05:55:40.525Z,7.80
2023-01-29T05:58:11.991Z,7.70
2023-01-29T06:00:43.101Z,7.70
2023-01-29T06:03:14.071Z,7.60
2023-01-29T06:05:45.254Z,7.70
2023-01-29T06:08:16.189Z,8.00
2023-01-29T06:10:47.086Z,7.30
2023-01-29T06:13:17.989Z,7.40
2023-01-29T06:15:48.862Z,7.40
2023-01-29T06:18:19.869Z,7.60
2023-01-29T06:20:50.728Z,7.70
2023-01-29T06:23:21.631Z,7.40
2023-01-29T06:25:52.530Z,7.30
2023-01-29T06:28:24.041Z,6.90
2023-01-29T06:31:08.316Z,7.00
2023-01-29T06:33:47.395Z,7.20
2023-01-29T06:36:18.299Z,7.00
2023-01-29T06:38:49.288Z,7.20
2023-01-29T06:41:25.281Z,7.20
2023-01-29T06:43:56.228Z,7.50
2023-01-29T06:46:27.162Z,7.50
2023-01-29T06:49:00.416Z,7.70
2023-01-29T06:51:33.625Z,7.50
2023-01-29T06:54:04.676Z,7.90
2023-01-29T06:56:35.726Z,6.90
2023-01-29T06:59:06.625Z,7.20
2023-01-29T07:01:42.372Z,7.30
2023-01-29T07:04:13.372Z,7.40
2023-01-29T07:06:44.274Z,7.20
2023-01-29T07:09:15.190Z,7.40
2023-01-29T07:11:46.141Z,7.60
2023-01-29T07:14:17.042Z,7.70
2023-01-29T07:16:47.942Z,7.70
2023-01-29T07:19:19.392Z,7.40
2023-01-29T07:21:50.262Z,7.70
2023-01-29T07:24:21.215Z,7.70
2023-01-29T07:26:52.094Z,7.50
2023-01-29T07:29:23.054Z,7.40
2023-01-29T07:31:54.024Z,7.30
2023-01-29T07:34:25.002Z,7.10
2023-01-29T07:36:56.896Z,7.30
2023-01-29T07:39:27.839Z,7.40
2023-01-29T07:41:58.723Z,7.80
2023-01-29T07:44:29.629Z,7.80
2023-01-29T07:47:00.520Z,7.40
2023-01-29T07:49:33.584Z,6.90
2023-01-29T07:52:04.927Z,7.00
2023-01-29T07:54:35.836Z,7.10
2023-01-29T07:57:06.751Z,7.80
2023-01-29T07:59:37.659Z,7.80
2023-01-29T08:02:10.203Z,8.10
2023-01-29T08:04:41.143Z,7.90
2023-01-29T08:07:12.061Z,7.60
2023-01-29T08:09:42.962Z,7.30
2023-01-29T08:12:14.675Z,7.70
2023-01-29T08:14:45.859Z,7.10
2023-01-29T08:17:16.742Z,7.30
2023-01-29T08:19:47.643Z,7.10
2023-01-29T08:22:18.588Z,7.20
2023-01-29T08:24:54.295Z,7.10
2023-01-29T08:27:30.923Z,8.40
2023-01-29T08:30:01.998Z,8.10
2023-01-29T08:32:33.271Z,8.20
2023-01-29T08:35:04.538Z,7.50
2023-01-29T08:37:35.535Z,7.80
2023-01-29T08:40:09.638Z,7.80
2023-01-29T08:42:41.648Z,7.30
2023-01-29T08:45:12.696Z,7.80
2023-01-29T08:47:52.365Z,7.80
2023-01-29T08:50:23.301Z,7.70
2023-01-29T08:53:02.174Z,7.10
2023-01-29T08:55:33.288Z,7.70
2023-01-29T08:58:06.567Z,8.10
2023-01-29T09:00:37.907Z,6.90
2023-01-29T09:03:09.876Z,7.30
2023-01-29T09:05:41.655Z,7.60
2023-01-29T09:08:13.105Z,7.80
2023-01-29T09:10:44.613Z,8.00
2023-01-29T09:13:15.560Z,7.90
2023-01-29T09:15:46.498Z,7.70
2023-01-29T09:18:17.456Z,8.10
2023-01-29T09:20:48.841Z,8.50
2023-01-29T09:23:20.130Z,8.10
2023-01-29T09:25:51.391Z,7.80
2023-01-29T09:28:22.801Z,8.00
2023-01-29T09:30:53.917Z,8.10
2023-01-29T09:33:24.952Z,8.10
2023-01-29T09:35:55.881Z,11.30
2023-01-29T09:38:26.769Z,10.90
2023-01-29T09:41:23.200Z,9.50
2023-01-29T09:44:06.110Z,9.10
2023-01-29T09:46:47.423Z,8.80
2023-01-29T09:49:30.852Z,8.70
2023-01-29T09:52:19.497Z,8.70
2023-01-29T09:55:18.946Z,8.90
2023-01-29T09:57:56.278Z,9.10
2023-01-29T10:00:38.937Z,9.90
2023-01-29T10:03:26.493Z,9.60
2023-01-29T10:06:28.053Z,9.50
2023-01-29T10:09:33.208Z,9.30
2023-01-29T10:12:40.370Z,8.70
2023-01-29T10:15:39.041Z,9.20
2023-01-29T10:18:15.801Z,8.70
2023-01-29T10:20:59.595Z,8.90
2023-01-29T10:24:09.295Z,9.50
2023-01-29T10:26:41.290Z,9.00
2023-01-29T10:29:19.640Z,8.80
2023-01-29T10:31:57.527Z,8.80
2023-01-29T10:34:40.546Z,9.20
2023-01-29T10:37:24.191Z,9.50
2023-01-29T10:39:55.098Z,8.90
2023-01-29T10:42:45.310Z,9.30
2023-01-29T10:45:52.344Z,8.60
2023-01-29T10:48:41.379Z,8.80
2023-01-29T10:51:19.130Z,9.00
2023-01-29T10:54:14.151Z,9.10
2023-01-29T10:57:14.164Z,9.70
2023-01-29T11:00:07.367Z,8.90
2023-01-29T11:02:45.533Z,8.80
2023-01-29T11:05:19.526Z,8.80
2023-01-29T11:08:05.529Z,9.30
2023-01-29T11:11:10.142Z,9.20
2023-01-29T11:14:07.188Z,9.30
2023-01-29T11:16:46.931Z,9.50
2023-01-29T11:19:18.047Z,9.10
2023-01-29T11:22:01.277Z,8.60
2023-01-29T11:24:32.193Z,8.80
2023-01-29T11:27:25.913Z,9.00
2023-01-29T11:29:57.385Z,9.30
2023-01-29T11:32:35.086Z,8.50
2023-01-29T11:35:22.706Z,8.90
2023-01-29T11:38:07.069Z,9.20
2023-01-29T11:40:40.638Z,9.30
2023-01-29T11:43:26.858Z,9.50
2023-01-29T11:46:14.427Z,9.30
2023-01-29T11:48:59.054Z,9.70
2023-01-29T11:51:38.914Z,9.70
2023-01-29T11:54:17.556Z,9.80
2023-01-29T11:56:48.895Z,9.50
2023-01-29T11:59:38.396Z,9.30
2023-01-29T12:02:23.281Z,9.00
2023-01-29T12:05:05.237Z,9.50
2023-01-29T12:07:43.222Z,9.90
2023-01-29T12:10:31.532Z,10.40
2023-01-29T12:13:09.641Z,10.20
2023-01-29T12:15:42.877Z,9.60
2023-01-29T12:18:40.173Z,10.20
2023-01-29T12:21:37.405Z,9.50
2023-01-29T12:24:34.992Z,9.90
2023-01-29T12:27:48.571Z,9.80
2023-01-29T12:30:40.545Z,10.00
2023-01-29T12:33:46.528Z,10.40
2023-01-29T12:36:53.159Z,10.20
2023-01-29T12:39:24.116Z,10.50
2023-01-29T12:42:05.281Z,10.60
2023-01-29T12:44:46.369Z,10.10
2023-01-29T12:47:31.113Z,10.60
2023-01-29T12:50:30.439Z,10.40
2023-01-29T12:53:17.797Z,10.50
2023-01-29T12:56:20.443Z,10.10
2023-01-29T12:58:54.829Z,9.80
2023-01-29T13:01:49.273Z,10.20
2023-01-29T13:04:45.572Z,9.90
2023-01-29T13:07:21.247Z,9.50
2023-01-29T13:10:04.596Z,9.90
2023-01-29T13:12:37.326Z,9.70
2023-01-29T13:15:23.108Z,10.00
2023-01-29T13:18:22.205Z,10.10
2023-01-29T13:20:53.549Z,10.60
2023-01-29T13:23:37.602Z,10.80
2023-01-29T13:26:08.870Z,10.50
2023-01-29T13:28:40.188Z,10.50
2023-01-29T13:31:19.968Z,9.80
2023-01-29T13:34:16.766Z,9.40
2023-01-29T13:36:55.479Z,10.20
2023-01-29T13:39:33.348Z,10.50
2023-01-29T13:42:20.976Z,10.60
2023-01-29T13:44:57.820Z,9.70
2023-01-29T13:47:32.825Z,10.80
2023-01-29T13:50:19.561Z,11.10
2023-01-29T13:53:02.227Z,11.10
2023-01-29T13:55:38.147Z,10.70
2023-01-29T13:58:18.699Z,10.60
2023-01-29T14:00:53.730Z,10.40
2023-01-29T14:03:24.683Z,10.40
2023-01-29T14:05:58.692Z,10.50
2023-01-29T14:08:36.055Z,10.60
2023-01-29T14:11:15.794Z,10.60
2023-01-29T14:13:49.400Z,10.60
2023-01-29T14:16:20.290Z,10.70
2023-01-29T14:19:00.318Z,10.40
2023-01-29T14:21:34.508Z,10.30
2023-01-29T14:24:22.165Z,10.40
2023-01-29T14:26:56.614Z,10.40
2023-01-29T14:29:38.129Z,10.30
2023-01-29T14:32:20.836Z,10.40
2023-01-29T14:35:30.598Z,10.60
2023-01-29T14:38:05.764Z,10.50
2023-01-29T14:40:37.284Z,10.30
2023-01-29T14:43:21.001Z,10.20
2023-01-29T14:45:52.011Z,10.00
2023-01-29T14:48:51.920Z,10.10
2023-01-29T14:51:25.223Z,10.20
2023-01-29T14:54:01.628Z,10.40
2023-01-29T14:57:03.352Z,9.90
2023-01-29T15:00:05.514Z,9.70
2023-01-29T15:02:43.893Z,10.00
2023-01-29T15:05:25.029Z,10.00
2023-01-29T15:08:15.971Z,10.30
2023-01-29T15:11:13.527Z,10.40
2023-01-29T15:14:13.823Z,10.50
2023-01-29T15:17:04.932Z,10.30
2023-01-29T15:19:45.850Z,10.30
2023-01-29T15:22:29.828Z,10.60
2023-01-29T15:25:14.954Z,10.50
2023-01-29T15:27:46.361Z,10.40
2023-01-29T15:30:23.203Z,10.60
2023-01-29T15:32:54.269Z,10.80
2023-01-29T15:35:42.436Z,10.30
2023-01-29T15:38:20.435Z,10.20
2023-01-29T15:41:01.548Z,10.30
2023-01-29T15:43:37.275Z,10.20
2023-01-29T15:46:21.037Z,10.20
2023-01-29T15:48:54.106Z,10.10
2023-01-29T15:51:27.598Z,10.30
2023-01-29T15:54:02.104Z,9.70
2023-01-29T15:56:39.268Z,9.80
2023-01-29T15:59:22.131Z,9.60
2023-01-29T16:01:56.657Z,9.60
2023-01-29T16:04:31.118Z,10.00
2023-01-29T16:07:03.733Z,9.90
2023-01-29T16:09:34.821Z,9.90
2023-01-29T16:12:06.345Z,9.70
2023-01-29T16:14:37.404Z,9.30
2023-01-29T16:17:35.398Z,9.60
2023-01-29T16:20:21.650Z,9.40
2023-01-29T16:22:53.646Z,9.30
2023-01-29T16:25:24.889Z,9.40
2023-01-29T16:27:56.155Z,9.30
2023-01-29T16:30:28.101Z,9.50
2023-01-29T16:33:06.303Z,9.10
2023-01-29T16:35:37.569Z,8.90
2023-01-29T16:38:30.337Z,8.80
2023-01-29T16:41:21.492Z,8.90
2023-01-29T16:43:54.479Z,8.80
2023-01-29T16:46:38.305Z,8.80
2023-01-29T16:49:38.632Z,8.70
2023-01-29T16:52:35.888Z,9.00
2023-01-29T16:55:18.489Z,8.60
2023-01-29T16:57:55.613Z,8.60
2023-01-29T17:00:30.205Z,8.70
2023-01-29T17:03:07.699Z,8.70
2023-01-29T17:05:39.002Z,8.90
2023-01-29T17:08:33.947Z,8.60
2023-01-29T17:11:07.238Z,8.50
2023-01-29T17:13:44.522Z,8.50
2023-01-29T17:16:32.414Z,8.60
2023-01-29T17:19:18.557Z,8.40
2023-01-29T17:21:49.655Z,8.30
2023-01-29T17:24:20.668Z,8.40
2023-01-29T17:26:52.170Z,8.20
2023-01-29T17:29:29.116Z,8.60
2023-01-29T17:32:00.380Z,8.50
2023-01-29T17:34:31.394Z,8.40
2023-01-29T17:37:02.385Z,8.10
2023-01-29T17:39:42.528Z,8.30
2023-01-29T17:42:15.471Z,8.30
2023-01-29T17:44:46.475Z,8.10
2023-01-29T17:47:17.432Z,8.00
2023-01-29T17:49:51.896Z,8.00
2023-01-29T17:52:24.049Z,8.00
2023-01-29T17:54:55.061Z,8.00
2023-01-29T17:57:26.006Z,8.10
2023-01-29T17:59:56.911Z,8.00
2023-01-29T18:02:29.669Z,7.90
2023-01-29T18:05:00.933Z,8.20
2023-01-29T18:07:31.929Z,8.10
2023-01-29T18:10:02.894Z,7.90
2023-01-29T18:12:33.780Z,7.80
2023-01-29T18:15:08.210Z,7.70
2023-01-29T18:17:40.570Z,7.50
2023-01-29T18:20:25.705Z,7.40
2023-01-29T18:22:57.324Z,7.40
2023-01-29T18:25:28.328Z,7.50
2023-01-29T18:27:59.409Z,7.60
2023-01-29T18:30:30.874Z,7.20
2023-01-29T18:33:01.976Z,7.30
2023-01-29T18:35:32.925Z,7.10
2023-01-29T18:38:04.348Z,7.30
2023-01-29T18:40:35.264Z,7.20
2023-01-29T18:43:06.259Z,7.20
2023-01-29T18:45:37.173Z,7.20
2023-01-29T18:48:08.298Z,6.90
2023-01-29T18:50:39.161Z,6.90
2023-01-29T18:53:10.326Z,7.20
2023-01-29T18:55:41.227Z,7.10
2023-01-29T18:58:33.918Z,6.90
2023-01-29T19:01:11.946Z,6.80
2023-01-29T19:03:43.155Z,7.00
2023-01-29T19:06:14.161Z,6.90
2023-01-29T19:08:45.111Z,6.90
2023-01-29T19:11:16.333Z,6.90
2023-01-29T19:13:48.042Z,6.60
2023-01-29T19:16:18.905Z,6.60
2023-01-29T19:18:49.972Z,6.40
2023-01-29T19:21:20.969Z,6.40
2023-01-29T19:23:51.865Z,6.30
2023-01-29T19:26:22.791Z,6.50
2023-01-29T19:28:53.788Z,6.50
2023-01-29T19:31:24.985Z,6.50
2023-01-29T19:33:55.925Z,6.30
2023-01-29T19:36:26.882Z,6.80
2023-01-29T19:38:57.801Z,6.60
2023-01-29T19:41:28.705Z,6.60
2023-01-29T19:43:59.597Z,6.80
2023-01-29T19:46:30.522Z,6.70
2023-01-29T19:49:03.609Z,6.70
2023-01-29T19:51:34.505Z,6.40
2023-01-29T19:54:05.438Z,7.30
2023-01-29T19:56:36.572Z,6.90
2023-01-29T19:59:07.684Z,6.90
2023-01-29T20:01:38.651Z,6.70
2023-01-29T20:04:09.585Z,6.60
2023-01-29T20:06:40.532Z,5.80
2023-01-29T20:09:14.198Z,5.80
2023-01-29T20:11:45.093Z,5.60
2023-01-29T20:14:16.041Z,5.60
2023-01-29T20:16:46.965Z,5.70
2023-01-29T20:19:20.120Z,5.80
2023-01-29T20:21:51.217Z,6.00
2023-01-29T20:24:23.641Z,5.80
2023-01-29T20:26:54.746Z,5.90
2023-01-29T20:29:25.822Z,5.90
2023-01-29T20:31:57.369Z,5.90
2023-01-29T20:34:28.681Z,6.50
2023-01-29T20:36:59.904Z,6.60
2023-01-29T20:39:30.919Z,6.20
2023-01-29T20:42:01.861Z,6.50
2023-01-29T20:44:32.920Z,6.50
2023-01-29T20:47:04.168Z,6.70
2023-01-29T20:49:36.039Z,6.80
2023-01-29T20:52:08.689Z,6.70
2023-01-29T20:54:40.253Z,6.80
2023-01-29T20:57:11.317Z,6.80
2023-01-29T20:59:42.278Z,7.10
2023-01-29T21:02:15.206Z,7.20
2023-01-29T21:04:46.181Z,6.70
2023-01-29T21:07:17.996Z,6.60
2023-01-29T21:09:49.239Z,7.00
2023-01-29T21:12:20.148Z,6.40
2023-01-29T21:14:51.124Z,7.00
2023-01-29T21:17:22.030Z,6.90
2023-01-29T21:19:52.914Z,7.00
2023-01-29T21:22:24.242Z,6.90
2023-01-29T21:24:55.126Z,7.10
2023-01-29T21:27:26.029Z,7.00
2023-01-29T21:29:57.424Z,7.10
2023-01-29T21:32:28.324Z,7.00
2023-01-29T21:34:59.228Z,6.90
2023-01-29T21:37:30.107Z,6.90
2023-01-29T21:40:01.022Z,6.70
2023-01-29T21:42:50.502Z,9.80
2023-01-29T21:45:21.493Z,10.80
2023-01-29T21:47:58.066Z,8.90
2023-01-29T21:50:29.060Z,8.50
2023-01-29T21:52:59.984Z,7.80
2023-01-29T21:55:30.971Z,7.50
2023-01-29T21:58:02.015Z,6.80
2023-01-29T22:00:32.922Z,6.80
2023-01-29T22:03:04.597Z,6.90
2023-01-29T22:05:35.630Z,6.60
2023-01-29T22:08:06.644Z,6.50
2023-01-29T22:10:37.871Z,6.00
2023-01-29T22:13:09.000Z,6.30
2023-01-29T22:15:39.927Z,5.80
2023-01-29T22:18:10.931Z,6.20
2023-01-29T22:20:41.845Z,6.10
2023-01-29T22:23:12.842Z,6.20
2023-01-29T22:25:43.729Z,5.70
2023-01-29T22:28:18.585Z,6.20
2023-01-29T22:30:49.896Z,5.60
2023-01-29T22:33:21.138Z,5.90
2023-01-29T22:35:56.004Z,6.10
2023-01-29T22:38:27.276Z,6.10
2023-01-29T22:41:00.141Z,6.20
2023-01-29T22:43:31.174Z,5.90
2023-01-29T22:46:06.541Z,6.10
2023-01-29T22:48:38.006Z,5.80
2023-01-29T22:51:10.447Z,6.00
2023-01-29T22:53:48.177Z,6.10
2023-01-29T22:56:21.088Z,5.60
2023-01-29T22:58:54.865Z,5.80
2023-01-29T23:01:29.655Z,6.00
2023-01-29T23:04:00.694Z,5.80
2023-01-29T23:06:31.618Z,5.80
2023-01-29T23:09:02.772Z,5.90
2023-01-29T23:11:33.705Z,5.90
2023-01-29T23:14:04.682Z,5.80
2023-01-29T23:16:35.567Z,5.80
2023-01-29T23:19:06.653Z,5.90
2023-01-29T23:21:37.767Z,6.30
2023-01-29T23:24:09.982Z,5.80
2023-01-29T23:26:59.233Z,5.80
2023-01-29T23:29:30.142Z,6.00
2023-01-29T23:32:00.999Z,6.00
2023-01-29T23:34:31.919Z,5.90
2023-01-29T23:37:02.903Z,6.00
2023-01-29T23:39:34.446Z,5.90
2023-01-29T23:42:05.759Z,5.60
2023-01-29T23:44:36.765Z,5.60
2023-01-29T23:47:08.741Z,5.40
2023-01-29T23:49:39.601Z,5.20
2023-01-29T23:52:10.629Z,5.80
2023-01-29T23:54:41.560Z,5.80
2023-01-29T23:57:12.443Z,5.70
2023-01-29T23:59:43.397Z,5.70
